Time;durP1;ratioP1;P1;durP2;ratioP2;P2;SDS_P1;SDS_P2;PMS_P1;PMS_P2;Temp;Humidity;BMP_temperature;BMP_pressure;BME280_temperature;BME280_humidity;BME280_pressure;Samples;Min_cycle;Max_cycle;Signal;HPM_P1;HPM_P2
2024/01/17 00:00:46;;;;;;;8.20;4.43;;;;;;;;;;5000442;28;20048;-66
2024/01/17 00:03:12;;;;;;;8.77;4.63;;;;;;;;;;4996472;28;20616;-66
2024/01/17 00:05:38;;;;;;;10.88;4.88;;;;;;;;;;5016788;28;20029;-66
2024/01/17 00:08:05;;;;;;;12.63;4.90;;;;;;;;;;5014343;28;20049;-66
2024/01/17 00:10:31;;;;;;;12.25;5.00;;;;;;;;;;4983868;28;20060;-65
2024/01/17 00:12:57;;;;;;;9.80;5.07;;;;;;;;;;4988462;28;20778;-66
2024/01/17 00:15:23;;;;;;;11.52;5.43;;;;;;;;;;4996608;28;20048;-66
2024/01/17 00:17:49;;;;;;;11.70;6.07;;;;;;;;;;4999846;28;20056;-66
2024/01/17 00:20:16;;;;;;;14.43;5.78;;;;;;;;;;5005470;28;20041;-66
2024/01/17 00:22:42;;;;;;;12.35;6.20;;;;;;;;;;5003142;28;20041;-66
2024/01/17 00:25:09;;;;;;;13.95;5.72;;;;;;;;;;5015664;28;20056;-66
2024/01/17 00:27:37;;;;;;;13.82;7.40;;;;;;;;;;5041170;28;20111;-66
2024/01/17 00:30:03;;;;;;;15.30;6.65;;;;;;;;;;5039970;28;20114;-66
2024/01/17 00:32:31;;;;;;;11.60;5.82;;;;;;;;;;5017678;28;20041;-66
2024/01/17 00:34:57;;;;;;;15.70;6.10;;;;;;;;;;5025206;28;20098;-66
2024/01/17 00:37:25;;;;;;;11.82;5.60;;;;;;;;;;5024735;28;20136;-66
2024/01/17 00:39:51;;;;;;;16.88;5.93;;;;;;;;;;5023236;28;20049;-66
2024/01/17 00:42:17;;;;;;;12.23;5.80;;;;;;;;;;5023081;28;20456;-66
2024/01/17 00:44:43;;;;;;;17.88;6.07;;;;;;;;;;5016094;28;20110;-66
2024/01/17 00:47:10;;;;;;;15.00;5.97;;;;;;;;;;5047348;28;20401;-66
2024/01/17 00:49:39;;;;;;;12.40;5.53;;;;;;;;;;5033771;28;20049;-66
2024/01/17 00:52:05;;;;;;;13.57;5.70;;;;;;;;;;5049178;28;20103;-66
2024/01/17 00:54:32;;;;;;;11.88;5.63;;;;;;;;;;5021099;28;20040;-66
2024/01/17 00:56:59;;;;;;;12.73;6.03;;;;;;;;;;5026999;28;20115;-66
2024/01/17 00:59:25;;;;;;;11.38;5.78;;;;;;;;;;5040457;28;20048;-66
2024/01/17 01:01:51;;;;;;;15.43;5.60;;;;;;;;;;5021988;28;20049;-66
2024/01/17 01:04:17;;;;;;;15.20;5.97;;;;;;;;;;5037600;28;20045;-66
2024/01/17 01:06:43;;;;;;;14.35;6.07;;;;;;;;;;5017048;28;20049;-66
2024/01/17 01:09:10;;;;;;;14.27;6.65;;;;;;;;;;5017092;28;20045;-66
2024/01/17 01:11:36;;;;;;;16.63;5.85;;;;;;;;;;5017701;28;20060;-66
2024/01/17 01:14:03;;;;;;;13.82;7.07;;;;;;;;;;5018710;28;20468;-66
2024/01/17 01:16:29;;;;;;;12.90;5.43;;;;;;;;;;5017609;28;22004;-66
2024/01/17 01:18:55;;;;;;;16.17;6.00;;;;;;;;;;5021892;28;20060;-66
2024/01/17 01:21:21;;;;;;;16.23;6.57;;;;;;;;;;5038850;28;20051;-66
2024/01/17 01:23:48;;;;;;;9.57;5.50;;;;;;;;;;5021126;28;20110;-66
2024/01/17 01:26:14;;;;;;;19.40;7.63;;;;;;;;;;5017143;28;20184;-66
2024/01/17 01:28:40;;;;;;;13.55;6.38;;;;;;;;;;5033656;28;20523;-66
2024/01/17 01:31:07;;;;;;;14.73;6.65;;;;;;;;;;5041559;28;20036;-65
2024/01/17 01:33:34;;;;;;;13.95;5.85;;;;;;;;;;5032545;28;20106;-66
2024/01/17 01:36:00;;;;;;;13.43;6.60;;;;;;;;;;5028761;28;20056;-66
2024/01/17 01:38:26;;;;;;;13.70;6.35;;;;;;;;;;5036471;28;20036;-66
2024/01/17 01:40:52;;;;;;;15.75;6.28;;;;;;;;;;5037706;28;20106;-65
2024/01/17 01:43:19;;;;;;;18.77;6.57;;;;;;;;;;5054357;28;20503;-66
2024/01/17 01:45:53;;;;;;;14.38;7.05;;;;;;;;;;5038320;28;20049;-66
2024/01/17 01:48:19;;;;;;;10.73;5.50;;;;;;;;;;5044036;28;20045;-66
2024/01/17 01:50:45;;;;;;;12.32;6.03;;;;;;;;;;5040376;28;20056;-66
2024/01/17 01:53:11;;;;;;;13.23;6.75;;;;;;;;;;5057593;28;20709;-66
2024/01/17 01:55:37;;;;;;;20.02;6.95;;;;;;;;;;5035898;28;20044;-66
2024/01/17 01:58:04;;;;;;;19.90;7.85;;;;;;;;;;5036937;28;20127;-66
2024/01/17 02:00:30;;;;;;;17.02;6.68;;;;;;;;;;5030801;28;20045;-67
2024/01/17 02:02:56;;;;;;;13.20;6.70;;;;;;;;;;5018875;28;20044;-66
2024/01/17 02:05:24;;;;;;;12.38;6.13;;;;;;;;;;5017964;28;20049;-66
2024/01/17 02:07:51;;;;;;;15.30;7.07;;;;;;;;;;5018924;28;20044;-66
2024/01/17 02:10:17;;;;;;;12.70;6.10;;;;;;;;;;5037036;28;20072;-66
2024/01/17 02:12:43;;;;;;;13.73;7.00;;;;;;;;;;5034259;28;20107;-66
2024/01/17 02:15:10;;;;;;;14.30;7.22;;;;;;;;;;5011001;28;20499;-66
2024/01/17 02:17:36;;;;;;;13.50;6.55;;;;;;;;;;5021303;28;20068;-66
2024/01/17 02:20:03;;;;;;;14.32;6.57;;;;;;;;;;5017092;28;20037;-66
2024/01/17 02:22:29;;;;;;;13.07;6.25;;;;;;;;;;5050232;28;20032;-66
2024/01/17 02:24:55;;;;;;;14.90;6.55;;;;;;;;;;5033534;28;20056;-66
2024/01/17 02:27:21;;;;;;;12.88;6.78;;;;;;;;;;5031373;28;20052;-66
2024/01/17 02:29:48;;;;;;;20.77;7.60;;;;;;;;;;5032268;28;20045;-66
2024/01/17 02:32:15;;;;;;;15.27;7.07;;;;;;;;;;5013121;28;20140;-66
2024/01/17 02:34:41;;;;;;;20.45;7.60;;;;;;;;;;5051474;28;20136;-66
2024/01/17 02:37:09;;;;;;;13.85;7.05;;;;;;;;;;5026378;28;20041;-66
2024/01/17 02:39:35;;;;;;;20.85;7.95;;;;;;;;;;5025382;28;20048;-66
2024/01/17 02:42:01;;;;;;;18.77;7.75;;;;;;;;;;5005836;28;20580;-66
2024/01/17 02:44:27;;;;;;;17.17;6.82;;;;;;;;;;5038315;28;20037;-66
2024/01/17 02:46:54;;;;;;;14.75;7.70;;;;;;;;;;5023234;28;20133;-66
2024/01/17 02:49:21;;;;;;;13.70;7.93;;;;;;;;;;5047850;28;20037;-66
2024/01/17 02:51:47;;;;;;;14.68;7.53;;;;;;;;;;5044650;28;20403;-66
2024/01/17 02:54:13;;;;;;;17.25;8.45;;;;;;;;;;5022094;28;20049;-66
2024/01/17 02:56:39;;;;;;;23.15;8.23;;;;;;;;;;5018889;28;20049;-66
2024/01/17 02:59:06;;;;;;;17.95;8.30;;;;;;;;;;5038609;28;20450;-67
2024/01/17 03:01:33;;;;;;;19.48;8.77;;;;;;;;;;5026761;28;20124;-66
2024/01/17 03:03:59;;;;;;;14.55;8.30;;;;;;;;;;5038191;28;20041;-66
2024/01/17 03:06:25;;;;;;;17.90;8.85;;;;;;;;;;5031911;28;20036;-67
2024/01/17 03:08:51;;;;;;;15.35;8.88;;;;;;;;;;5034071;28;20472;-66
2024/01/17 03:11:17;;;;;;;20.83;8.95;;;;;;;;;;5029010;28;20389;-67
2024/01/17 03:13:44;;;;;;;15.05;9.18;;;;;;;;;;5027055;28;20037;-66
2024/01/17 03:16:10;;;;;;;20.08;9.43;;;;;;;;;;5050304;28;20067;-66
2024/01/17 03:18:37;;;;;;;24.33;10.18;;;;;;;;;;5035957;28;20045;-66
2024/01/17 03:21:04;;;;;;;19.27;9.48;;;;;;;;;;5031910;28;20053;-66
2024/01/17 03:23:31;;;;;;;18.88;10.35;;;;;;;;;;5029632;28;20044;-67
2024/01/17 03:25:57;;;;;;;18.58;10.45;;;;;;;;;;5024940;28;20056;-66
2024/01/17 03:28:23;;;;;;;16.88;9.93;;;;;;;;;;5024726;28;20076;-66
2024/01/17 03:30:49;;;;;;;19.60;10.18;;;;;;;;;;5025723;28;20048;-66
2024/01/17 03:33:15;;;;;;;19.35;10.85;;;;;;;;;;5028007;28;20404;-66
2024/01/17 03:35:42;;;;;;;18.30;9.77;;;;;;;;;;5035207;28;20103;-66
2024/01/17 03:38:08;;;;;;;18.17;10.30;;;;;;;;;;5035142;28;20071;-66
2024/01/17 03:40:34;;;;;;;21.58;10.68;;;;;;;;;;5049827;28;20045;-66
2024/01/17 03:43:00;;;;;;;24.20;10.23;;;;;;;;;;5052071;28;20392;-66
2024/01/17 03:45:27;;;;;;;22.90;10.13;;;;;;;;;;5039375;28;20037;-66
2024/01/17 03:47:53;;;;;;;18.75;10.27;;;;;;;;;;5030193;28;20417;-66
2024/01/17 03:50:19;;;;;;;21.30;10.45;;;;;;;;;;5033984;28;20055;-66
2024/01/17 03:52:45;;;;;;;18.85;10.85;;;;;;;;;;5047413;28;20099;-66
2024/01/17 03:55:11;;;;;;;17.33;10.30;;;;;;;;;;5033606;28;20046;-66
2024/01/17 03:57:37;;;;;;;21.65;10.27;;;;;;;;;;5049332;28;20164;-66
2024/01/17 04:00:04;;;;;;;20.40;11.88;;;;;;;;;;5036140;28;20400;-66
2024/01/17 04:02:30;;;;;;;18.30;10.82;;;;;;;;;;5013342;28;20041;-66
2024/01/17 04:04:57;;;;;;;20.98;10.63;;;;;;;;;;5038051;28;20388;-66
2024/01/17 04:07:23;;;;;;;17.45;10.90;;;;;;;;;;5021860;28;20484;-66
2024/01/17 04:09:49;;;;;;;21.65;10.30;;;;;;;;;;5021025;28;20468;-66
2024/01/17 04:12:16;;;;;;;18.35;11.38;;;;;;;;;;5025290;28;20068;-66
2024/01/17 04:14:42;;;;;;;23.85;11.57;;;;;;;;;;5037871;28;20137;-66
2024/01/17 04:17:11;;;;;;;21.15;11.80;;;;;;;;;;5022397;28;20137;-66
2024/01/17 04:19:37;;;;;;;19.65;11.65;;;;;;;;;;5037289;28;20404;-66
2024/01/17 04:22:03;;;;;;;20.02;11.05;;;;;;;;;;5039532;28;20072;-71
2024/01/17 04:24:30;;;;;;;23.33;12.88;;;;;;;;;;5019043;28;20568;-65
2024/01/17 04:26:56;;;;;;;20.13;11.25;;;;;;;;;;5020488;28;20147;-66
2024/01/17 04:29:23;;;;;;;22.42;11.70;;;;;;;;;;5018900;28;20087;-66
2024/01/17 04:31:49;;;;;;;22.50;11.23;;;;;;;;;;5011735;28;20045;-66
2024/01/17 04:34:15;;;;;;;20.42;11.35;;;;;;;;;;5029124;28;20124;-67
2024/01/17 04:36:42;;;;;;;20.90;11.75;;;;;;;;;;5030661;28;20053;-66
2024/01/17 04:39:08;;;;;;;21.60;11.48;;;;;;;;;;5053598;28;20033;-66
2024/01/17 04:41:34;;;;;;;19.05;11.98;;;;;;;;;;5033503;28;20080;-66
2024/01/17 04:44:01;;;;;;;20.75;11.75;;;;;;;;;;5035488;28;20040;-67
2024/01/17 04:46:27;;;;;;;22.55;10.88;;;;;;;;;;5031518;28;20496;-66
2024/01/17 04:48:53;;;;;;;19.02;11.13;;;;;;;;;;5036813;28;20040;-66
2024/01/17 04:51:22;;;;;;;22.13;12.80;;;;;;;;;;5038559;28;20135;-67
2024/01/17 04:53:49;;;;;;;21.50;11.80;;;;;;;;;;5037361;28;20044;-66
2024/01/17 04:56:16;;;;;;;20.20;12.40;;;;;;;;;;5036314;28;20071;-66
2024/01/17 04:58:43;;;;;;;21.88;13.32;;;;;;;;;;5055758;28;21703;-66
2024/01/17 05:01:09;;;;;;;16.20;11.35;;;;;;;;;;5040780;28;20512;-66
2024/01/17 05:03:36;;;;;;;21.20;11.25;;;;;;;;;;5033367;28;20052;-67
2024/01/17 05:06:02;;;;;;;18.38;11.15;;;;;;;;;;5042975;28;20110;-66
2024/01/17 05:08:29;;;;;;;19.77;9.98;;;;;;;;;;5025819;28;20501;-66
2024/01/17 05:10:55;;;;;;;20.52;10.52;;;;;;;;;;5025052;28;20037;-66
2024/01/17 05:13:21;;;;;;;19.55;11.50;;;;;;;;;;5044044;28;20040;-66
2024/01/17 05:15:48;;;;;;;19.42;10.57;;;;;;;;;;5051164;28;20071;-66
2024/01/17 05:18:15;;;;;;;19.90;11.00;;;;;;;;;;5039476;28;21176;-67
2024/01/17 05:20:41;;;;;;;26.45;10.52;;;;;;;;;;5032760;28;20056;-66
2024/01/17 05:23:07;;;;;;;26.58;11.27;;;;;;;;;;5019981;28;20052;-66
2024/01/17 05:25:34;;;;;;;17.75;10.85;;;;;;;;;;5053540;28;20404;-66
2024/01/17 05:28:00;;;;;;;21.15;11.82;;;;;;;;;;5018799;28;20068;-66
2024/01/17 05:30:26;;;;;;;21.58;11.57;;;;;;;;;;5026799;28;20040;-66
2024/01/17 05:32:52;;;;;;;19.17;10.32;;;;;;;;;;5026849;28;20075;-66
2024/01/17 05:35:20;;;;;;;19.40;11.55;;;;;;;;;;5027223;28;20163;-66
2024/01/17 05:37:47;;;;;;;22.65;10.70;;;;;;;;;;5045242;28;20045;-66
2024/01/17 05:40:13;;;;;;;25.27;13.07;;;;;;;;;;5032466;28;20480;-66
2024/01/17 05:42:40;;;;;;;19.80;11.52;;;;;;;;;;5028248;28;20391;-66
2024/01/17 05:45:08;;;;;;;22.30;11.63;;;;;;;;;;5053143;28;20461;-66
2024/01/17 05:47:36;;;;;;;24.63;11.73;;;;;;;;;;5031480;28;20500;-66
2024/01/17 05:50:08;;;;;;;24.20;11.27;;;;;;;;;;5035924;28;20497;-66
2024/01/17 05:52:36;;;;;;;23.98;11.68;;;;;;;;;;5055602;28;20049;-66
2024/01/17 05:55:02;;;;;;;23.88;12.13;;;;;;;;;;5053857;28;20048;-66
2024/01/17 05:57:29;;;;;;;27.20;12.70;;;;;;;;;;5036278;28;20189;-66
2024/01/17 05:59:55;;;;;;;26.98;13.15;;;;;;;;;;5036678;28;20427;-66
2024/01/17 06:02:21;;;;;;;23.08;12.50;;;;;;;;;;5055088;28;20130;-66
2024/01/17 06:04:48;;;;;;;23.55;12.48;;;;;;;;;;5061986;28;20040;-66
2024/01/17 06:07:14;;;;;;;23.65;11.65;;;;;;;;;;5033262;28;20120;-66
2024/01/17 06:09:43;;;;;;;21.63;12.00;;;;;;;;;;5023211;28;21670;-66
2024/01/17 06:12:10;;;;;;;21.38;12.45;;;;;;;;;;5035738;28;20056;-66
2024/01/17 06:14:36;;;;;;;23.20;12.88;;;;;;;;;;5024395;28;20119;-66
2024/01/17 06:17:02;;;;;;;25.35;13.55;;;;;;;;;;5018409;28;20101;-66
2024/01/17 06:19:29;;;;;;;21.33;12.15;;;;;;;;;;5043073;28;20473;-66
2024/01/17 06:21:55;;;;;;;27.17;13.38;;;;;;;;;;5027446;28;20044;-66
2024/01/17 06:24:21;;;;;;;21.00;11.93;;;;;;;;;;5029697;28;20040;-66
2024/01/17 06:26:47;;;;;;;24.83;12.98;;;;;;;;;;5043413;28;20063;-66
2024/01/17 06:29:14;;;;;;;24.25;12.75;;;;;;;;;;5032293;28;20049;-66
2024/01/17 06:31:40;;;;;;;27.70;12.70;;;;;;;;;;5031116;28;20125;-66
2024/01/17 06:34:06;;;;;;;24.38;13.90;;;;;;;;;;5029023;28;20519;-66
2024/01/17 06:36:32;;;;;;;21.75;11.85;;;;;;;;;;5031838;28;20094;-66
2024/01/17 06:38:59;;;;;;;26.38;13.55;;;;;;;;;;5036635;28;20048;-66
2024/01/17 06:41:25;;;;;;;28.80;12.55;;;;;;;;;;5047526;28;20400;-66
2024/01/17 06:43:51;;;;;;;21.60;12.30;;;;;;;;;;5025263;28;20092;-66
2024/01/17 06:46:17;;;;;;;24.70;13.10;;;;;;;;;;5038272;28;20147;-66
2024/01/17 06:48:44;;;;;;;23.85;13.00;;;;;;;;;;5035352;28;20048;-66
2024/01/17 06:51:10;;;;;;;25.83;12.98;;;;;;;;;;5027442;28;20036;-66
2024/01/17 06:53:36;;;;;;;22.85;13.13;;;;;;;;;;5027884;28;20373;-66
2024/01/17 06:56:02;;;;;;;27.00;13.45;;;;;;;;;;5025887;28;20114;-66
2024/01/17 06:58:28;;;;;;;21.67;11.98;;;;;;;;;;5048196;28;20041;-66
2024/01/17 07:00:55;;;;;;;23.67;12.38;;;;;;;;;;5027290;28;20389;-67
2024/01/17 07:03:21;;;;;;;20.77;12.10;;;;;;;;;;5027459;28;20047;-67
2024/01/17 07:05:47;;;;;;;24.63;12.40;;;;;;;;;;5027297;28;20163;-77
2024/01/17 07:08:13;;;;;;;23.17;12.35;;;;;;;;;;5030801;28;20060;-66
2024/01/17 07:10:40;;;;;;;25.33;13.25;;;;;;;;;;5048345;28;20041;-67
2024/01/17 07:13:07;;;;;;;28.67;13.77;;;;;;;;;;5050058;28;20100;-66
2024/01/17 07:15:33;;;;;;;26.10;12.38;;;;;;;;;;5051806;28;20047;-65
2024/01/17 07:17:59;;;;;;;22.35;13.18;;;;;;;;;;5036342;28;20139;-67
2024/01/17 07:20:25;;;;;;;23.45;12.88;;;;;;;;;;5053667;28;20045;-66
2024/01/17 07:22:52;;;;;;;27.45;13.07;;;;;;;;;;5040757;28;20044;-76
2024/01/17 07:25:18;;;;;;;20.45;12.85;;;;;;;;;;5025205;28;20118;-66
2024/01/17 07:27:45;;;;;;;25.45;12.40;;;;;;;;;;5046536;28;20384;-67
2024/01/17 07:30:12;;;;;;;25.02;13.55;;;;;;;;;;5033784;28;20404;-66
2024/01/17 07:32:38;;;;;;;23.15;13.15;;;;;;;;;;5029491;28;20110;-66
2024/01/17 07:35:05;;;;;;;28.48;14.88;;;;;;;;;;5028872;28;20041;-66
2024/01/17 07:37:31;;;;;;;25.30;13.85;;;;;;;;;;5028512;28;20033;-66
2024/01/17 07:39:58;;;;;;;21.90;13.13;;;;;;;;;;5027293;28;20059;-66
2024/01/17 07:42:24;;;;;;;31.70;14.07;;;;;;;;;;5013867;28;20053;-66
2024/01/17 07:44:50;;;;;;;23.95;13.07;;;;;;;;;;5038322;28;20051;-67
2024/01/17 07:47:17;;;;;;;24.95;14.98;;;;;;;;;;5012216;28;20464;-67
2024/01/17 07:49:43;;;;;;;26.67;14.23;;;;;;;;;;5022794;28;20041;-66
2024/01/17 07:52:10;;;;;;;26.55;13.98;;;;;;;;;;5047282;28;20082;-67
2024/01/17 07:54:36;;;;;;;22.80;12.68;;;;;;;;;;5033167;28;20128;-66
2024/01/17 07:57:03;;;;;;;24.10;13.57;;;;;;;;;;5049382;28;20049;-67
2024/01/17 07:59:29;;;;;;;28.15;14.38;;;;;;;;;;5046654;28;20037;-66
2024/01/17 08:01:55;;;;;;;20.40;12.82;;;;;;;;;;5046730;28;20052;-67
2024/01/17 08:04:22;;;;;;;23.50;13.18;;;;;;;;;;5021772;28;20068;-69
2024/01/17 08:06:49;;;;;;;23.98;12.35;;;;;;;;;;5044848;28;20127;-67
2024/01/17 08:09:21;;;;;;;22.67;12.27;;;;;;;;;;5022000;28;20146;-66
2024/01/17 08:11:48;;;;;;;30.70;12.82;;;;;;;;;;5028680;28;20049;-67
2024/01/17 08:14:15;;;;;;;27.08;13.85;;;;;;;;;;5028983;28;20044;-67
2024/01/17 08:16:41;;;;;;;19.33;12.00;;;;;;;;;;5047459;28;20045;-67
2024/01/17 08:19:07;;;;;;;23.75;11.35;;;;;;;;;;5042934;28;20037;-67
2024/01/17 08:21:33;;;;;;;22.02;11.75;;;;;;;;;;5024867;28;20049;-67
2024/01/17 08:23:59;;;;;;;25.40;13.13;;;;;;;;;;5050431;28;20416;-67
2024/01/17 08:26:26;;;;;;;20.63;11.55;;;;;;;;;;5027078;28;20056;-67
2024/01/17 08:28:52;;;;;;;27.17;13.60;;;;;;;;;;5009038;28;20048;-68
2024/01/17 08:31:18;;;;;;;19.30;12.55;;;;;;;;;;5011215;28;20042;-70
2024/01/17 08:33:44;;;;;;;22.33;13.27;;;;;;;;;;5012031;28;20406;-67
2024/01/17 08:36:12;;;;;;;22.40;12.43;;;;;;;;;;5002839;28;20044;-67
2024/01/17 08:38:38;;;;;;;21.52;11.45;;;;;;;;;;5004789;28;20087;-67
2024/01/17 08:41:04;;;;;;;20.60;11.07;;;;;;;;;;5014756;28;20457;-66
2024/01/17 08:43:30;;;;;;;21.42;11.65;;;;;;;;;;5025804;28;20057;-67
2024/01/17 08:45:56;;;;;;;24.00;12.02;;;;;;;;;;5025687;28;20046;-67
2024/01/17 08:48:23;;;;;;;21.42;11.48;;;;;;;;;;5016076;28;20091;-67
2024/01/17 08:50:49;;;;;;;20.98;11.63;;;;;;;;;;5041331;28;20501;-68
2024/01/17 08:53:15;;;;;;;28.75;12.80;;;;;;;;;;5004999;28;20489;-67
2024/01/17 08:55:42;;;;;;;21.52;11.70;;;;;;;;;;5027331;28;20110;-67
2024/01/17 08:58:08;;;;;;;20.27;11.25;;;;;;;;;;5001713;28;20366;-68
2024/01/17 09:00:34;;;;;;;21.25;11.70;;;;;;;;;;5008714;28;20053;-67
2024/01/17 09:03:00;;;;;;;29.75;11.93;;;;;;;;;;5002655;28;20042;-67
2024/01/17 09:05:27;;;;;;;23.42;11.63;;;;;;;;;;5007487;28;20052;-77
2024/01/17 09:07:54;;;;;;;20.40;11.73;;;;;;;;;;5008593;28;20045;-76
2024/01/17 09:10:20;;;;;;;22.98;12.43;;;;;;;;;;4999937;28;20056;-66
2024/01/17 09:12:46;;;;;;;21.75;12.10;;;;;;;;;;5021728;28;20321;-66
2024/01/17 09:15:12;;;;;;;19.85;11.18;;;;;;;;;;5002486;28;20128;-68
2024/01/17 09:17:41;;;;;;;23.58;11.40;;;;;;;;;;5017985;28;20042;-66
2024/01/17 09:20:08;;;;;;;22.65;12.32;;;;;;;;;;5006595;28;20033;-66
2024/01/17 09:22:34;;;;;;;21.35;12.98;;;;;;;;;;5028858;28;20425;-66
2024/01/17 09:25:00;;;;;;;23.67;12.32;;;;;;;;;;5019768;28;20092;-66
2024/01/17 09:27:30;;;;;;;18.98;11.77;;;;;;;;;;5018767;28;20057;-67
2024/01/17 09:29:56;;;;;;;21.13;12.40;;;;;;;;;;5023672;28;20543;-66
2024/01/17 09:32:23;;;;;;;21.67;12.35;;;;;;;;;;5026025;28;20052;-66
2024/01/17 09:34:49;;;;;;;18.08;11.05;;;;;;;;;;5021668;28;20089;-66
2024/01/17 09:37:16;;;;;;;20.38;10.85;;;;;;;;;;5021603;28;20107;-66
2024/01/17 09:39:43;;;;;;;18.80;11.48;;;;;;;;;;5021820;28;20173;-66
2024/01/17 09:42:10;;;;;;;25.55;12.20;;;;;;;;;;5023588;28;20048;-66
2024/01/17 09:44:37;;;;;;;24.08;11.55;;;;;;;;;;5021596;28;20055;-66
2024/01/17 09:47:05;;;;;;;20.52;11.82;;;;;;;;;;5035461;28;20053;-66
2024/01/17 09:49:33;;;;;;;22.70;11.82;;;;;;;;;;5022546;28;20053;-66
2024/01/17 09:52:04;;;;;;;19.80;10.82;;;;;;;;;;5040087;28;20447;-66
2024/01/17 09:54:33;;;;;;;27.02;10.95;;;;;;;;;;5027568;28;20041;-66
2024/01/17 09:56:59;;;;;;;17.48;10.52;;;;;;;;;;5024534;28;20045;-66
2024/01/17 09:59:28;;;;;;;22.77;12.43;;;;;;;;;;5005733;28;20219;-66
2024/01/17 10:01:55;;;;;;;22.40;11.70;;;;;;;;;;5044611;28;20068;-66
2024/01/17 10:04:23;;;;;;;21.58;10.98;;;;;;;;;;5029117;28;20559;-66
2024/01/17 10:06:49;;;;;;;24.02;10.65;;;;;;;;;;5027134;28;20527;-66
2024/01/17 10:09:16;;;;;;;17.23;9.98;;;;;;;;;;5015249;28;20508;-70
2024/01/17 10:11:42;;;;;;;17.20;10.52;;;;;;;;;;5023186;28;20112;-67
2024/01/17 10:14:08;;;;;;;16.90;10.43;;;;;;;;;;5046950;28;20049;-66
2024/01/17 10:16:34;;;;;;;19.65;10.98;;;;;;;;;;5027176;28;20067;-72
2024/01/17 10:19:04;;;;;;;19.23;10.98;;;;;;;;;;5024105;28;20052;-72
2024/01/17 10:21:33;;;;;;;14.60;9.30;;;;;;;;;;5028466;28;20049;-72
2024/01/17 10:24:00;;;;;;;19.70;10.05;;;;;;;;;;5028846;28;20127;-72
2024/01/17 10:26:26;;;;;;;20.13;10.13;;;;;;;;;;5028600;28;20078;-71
2024/01/17 10:28:52;;;;;;;18.52;9.55;;;;;;;;;;5022573;28;20454;-72
2024/01/17 10:31:20;;;;;;;17.58;9.95;;;;;;;;;;5020485;28;20123;-72
2024/01/17 10:33:47;;;;;;;15.65;9.20;;;;;;;;;;5013031;28;20469;-68
2024/01/17 10:36:13;;;;;;;18.17;9.32;;;;;;;;;;5015840;28;20087;-73
2024/01/17 10:38:40;;;;;;;25.10;12.05;;;;;;;;;;5020394;28;20292;-68
2024/01/17 10:41:06;;;;;;;21.75;9.68;;;;;;;;;;5023039;28;20189;-68
2024/01/17 10:43:34;;;;;;;20.55;9.95;;;;;;;;;;5020580;28;20409;-68
2024/01/17 10:46:03;;;;;;;19.23;10.40;;;;;;;;;;5028658;28;20060;-68
2024/01/17 10:48:30;;;;;;;18.17;9.02;;;;;;;;;;5028971;28;20053;-68
2024/01/17 10:51:01;;;;;;;24.80;10.52;;;;;;;;;;5027548;28;20443;-68
2024/01/17 10:53:31;;;;;;;15.75;9.45;;;;;;;;;;5030863;28;20061;-74
2024/01/17 10:56:00;;;;;;;22.85;9.30;;;;;;;;;;5032547;28;20149;-68
2024/01/17 10:58:26;;;;;;;21.92;9.05;;;;;;;;;;5027872;28;20072;-72
2024/01/17 11:00:53;;;;;;;18.45;9.55;;;;;;;;;;5027796;28;21528;-73
2024/01/17 11:03:20;;;;;;;17.08;8.88;;;;;;;;;;5024015;28;20034;-73
2024/01/17 11:05:49;;;;;;;17.70;8.95;;;;;;;;;;5021507;28;20522;-69
2024/01/17 11:08:16;;;;;;;18.25;9.68;;;;;;;;;;5044961;28;20037;-68
2024/01/17 11:10:44;;;;;;;19.40;9.20;;;;;;;;;;5041248;28;20044;-68
2024/01/17 11:13:12;;;;;;;17.80;9.90;;;;;;;;;;5025727;28;20385;-72
2024/01/17 11:15:38;;;;;;;21.48;9.45;;;;;;;;;;5024102;28;20048;-68
2024/01/17 11:18:05;;;;;;;19.70;9.77;;;;;;;;;;5041310;28;20067;-69
2024/01/17 11:20:31;;;;;;;17.77;9.30;;;;;;;;;;5027034;28;20053;-66
2024/01/17 11:23:01;;;;;;;20.38;9.80;;;;;;;;;;5042558;28;20136;-65
2024/01/17 11:25:33;;;;;;;19.90;9.90;;;;;;;;;;5035367;28;20118;-66
2024/01/17 11:28:27;;;;;;;18.85;9.68;;;;;;;;;;5047278;28;20124;-66
2024/01/17 11:31:12;;;;;;;26.42;10.70;;;;;;;;;;5011757;28;20049;-66
2024/01/17 11:33:39;;;;;;;20.63;9.40;;;;;;;;;;5047372;28;20053;-66
2024/01/17 11:36:05;;;;;;;19.45;9.55;;;;;;;;;;5045228;28;20108;-66
2024/01/17 11:38:33;;;;;;;18.17;9.32;;;;;;;;;;5030341;28;20060;-65
2024/01/17 11:41:10;;;;;;;17.40;9.65;;;;;;;;;;5049355;28;20438;-65
2024/01/17 11:43:38;;;;;;;18.58;9.63;;;;;;;;;;5048663;28;20500;-66
2024/01/17 11:46:05;;;;;;;18.33;9.50;;;;;;;;;;5047441;28;20044;-67
2024/01/17 11:48:32;;;;;;;16.70;8.90;;;;;;;;;;5045526;28;20053;-67
2024/01/17 11:51:00;;;;;;;18.83;9.30;;;;;;;;;;5027263;28;20653;-66
2024/01/17 11:53:27;;;;;;;14.73;8.60;;;;;;;;;;5032789;28;20049;-66
2024/01/17 11:55:56;;;;;;;16.85;8.73;;;;;;;;;;5025833;28;20056;-69
2024/01/17 11:58:22;;;;;;;15.30;9.68;;;;;;;;;;5024698;28;20099;-70
2024/01/17 12:01:07;;;;;;;16.25;9.25;;;;;;;;;;5030488;28;20048;-68
2024/01/17 12:03:33;;;;;;;16.58;9.35;;;;;;;;;;5041327;28;20187;-68
2024/01/17 12:06:01;;;;;;;20.98;10.02;;;;;;;;;;5025803;28;20051;-68
2024/01/17 12:08:27;;;;;;;21.27;10.05;;;;;;;;;;5024632;28;20384;-66
2024/01/17 12:10:54;;;;;;;16.35;8.50;;;;;;;;;;5042537;28;20071;-66
2024/01/17 12:13:22;;;;;;;20.20;10.90;;;;;;;;;;5041075;28;20037;-66
2024/01/17 12:15:49;;;;;;;17.50;8.85;;;;;;;;;;5024320;28;20404;-66
2024/01/17 12:18:19;;;;;;;20.73;9.88;;;;;;;;;;5028728;28;20040;-66
2024/01/17 12:20:46;;;;;;;19.42;8.95;;;;;;;;;;5045892;28;20048;-66
2024/01/17 12:23:12;;;;;;;19.60;9.95;;;;;;;;;;5028013;28;20063;-67
2024/01/17 12:25:39;;;;;;;20.38;9.52;;;;;;;;;;5046185;28;20508;-66
2024/01/17 12:28:05;;;;;;;20.50;9.88;;;;;;;;;;5024019;28;20068;-66
2024/01/17 12:30:32;;;;;;;18.17;8.88;;;;;;;;;;5027205;28;20037;-66
2024/01/17 12:32:58;;;;;;;15.77;8.85;;;;;;;;;;5027927;28;20045;-66
2024/01/17 12:35:24;;;;;;;18.48;8.57;;;;;;;;;;5023642;28;20060;-66
2024/01/17 12:37:50;;;;;;;20.17;9.65;;;;;;;;;;5024690;28;20049;-66
2024/01/17 12:40:17;;;;;;;26.10;10.90;;;;;;;;;;5026847;28;20223;-66
2024/01/17 12:42:47;;;;;;;18.83;9.55;;;;;;;;;;5023000;28;20056;-66
2024/01/17 12:45:14;;;;;;;15.82;8.93;;;;;;;;;;5043669;28;20033;-66
2024/01/17 12:47:40;;;;;;;19.30;10.23;;;;;;;;;;5044123;28;20056;-66
2024/01/17 12:50:08;;;;;;;20.17;9.25;;;;;;;;;;5027470;28;20198;-66
2024/01/17 12:52:35;;;;;;;17.73;12.13;;;;;;;;;;5027844;28;20582;-66
2024/01/17 12:55:02;;;;;;;16.08;8.90;;;;;;;;;;5042359;28;20032;-66
2024/01/17 12:57:29;;;;;;;21.90;9.90;;;;;;;;;;5024007;28;20057;-66
2024/01/17 12:59:55;;;;;;;17.65;9.48;;;;;;;;;;5018645;28;21757;-66
2024/01/17 13:02:21;;;;;;;18.17;9.60;;;;;;;;;;5038778;28;20417;-67
2024/01/17 13:05:08;;;;;;;17.85;10.32;;;;;;;;;;5005927;28;20053;-67
2024/01/17 13:07:34;;;;;;;19.77;10.32;;;;;;;;;;5017392;28;20045;-66
2024/01/17 13:10:14;;;;;;;16.73;8.93;;;;;;;;;;5027646;28;20395;-66
2024/01/17 13:12:40;;;;;;;19.33;10.75;;;;;;;;;;5029431;28;20072;-69
2024/01/17 13:15:07;;;;;;;16.05;9.40;;;;;;;;;;5041557;28;20405;-68
2024/01/17 13:17:35;;;;;;;16.75;10.10;;;;;;;;;;5042849;28;20049;-70
2024/01/17 13:20:02;;;;;;;21.50;9.40;;;;;;;;;;5022824;28;20102;-70
2024/01/17 13:22:30;;;;;;;18.98;9.43;;;;;;;;;;5026249;28;20572;-69
2024/01/17 13:24:56;;;;;;;15.00;8.85;;;;;;;;;;5050850;28;20041;-68
2024/01/17 13:27:23;;;;;;;23.52;10.25;;;;;;;;;;5018242;28;20060;-68
2024/01/17 13:29:49;;;;;;;22.80;11.38;;;;;;;;;;5009943;28;20111;-69
2024/01/17 13:32:15;;;;;;;24.13;10.38;;;;;;;;;;5010415;28;20630;-68
2024/01/17 13:34:42;;;;;;;22.80;9.32;;;;;;;;;;5022981;28;20045;-68
2024/01/17 13:37:08;;;;;;;15.63;9.55;;;;;;;;;;5005240;28;20425;-68
2024/01/17 13:39:34;;;;;;;19.73;9.43;;;;;;;;;;5003253;28;20132;-68
2024/01/17 13:42:00;;;;;;;17.80;9.90;;;;;;;;;;5004698;28;20060;-68
2024/01/17 13:44:27;;;;;;;17.85;9.82;;;;;;;;;;4999691;28;20107;-68
2024/01/17 13:46:53;;;;;;;17.17;10.52;;;;;;;;;;5012474;28;20045;-68
2024/01/17 13:49:24;;;;;;;23.05;10.32;;;;;;;;;;5005463;28;20051;-68
2024/01/17 13:51:52;;;;;;;16.33;9.82;;;;;;;;;;4999868;28;20045;-68
2024/01/17 13:54:18;;;;;;;18.95;10.05;;;;;;;;;;5002999;28;20064;-68
2024/01/17 13:56:45;;;;;;;20.40;10.00;;;;;;;;;;4997447;28;20116;-68
2024/01/17 13:59:11;;;;;;;21.33;10.00;;;;;;;;;;5003337;28;20126;-67
2024/01/17 14:01:37;;;;;;;20.92;9.60;;;;;;;;;;5019645;28;20046;-68
2024/01/17 14:04:04;;;;;;;26.33;10.82;;;;;;;;;;5004813;28;20122;-68
2024/01/17 14:06:30;;;;;;;19.55;9.73;;;;;;;;;;5016954;28;20128;-68
2024/01/17 14:08:56;;;;;;;19.70;9.75;;;;;;;;;;5004474;28;20063;-68
2024/01/17 14:11:25;;;;;;;20.65;10.73;;;;;;;;;;5019096;28;20495;-67
2024/01/17 14:13:52;;;;;;;18.08;10.23;;;;;;;;;;5023606;28;20049;-68
2024/01/17 14:16:18;;;;;;;20.83;10.45;;;;;;;;;;5010081;28;20058;-68
2024/01/17 14:18:45;;;;;;;20.45;10.48;;;;;;;;;;5008042;28;20060;-68
2024/01/17 14:21:11;;;;;;;21.55;11.00;;;;;;;;;;5009587;28;20053;-68